Sinimbu, Brazil
Current Conditions -  °F | °C
As of 7:00 AM on Sunday 21 Dec 2014 (Local Time) from SBSM Reporting Station
Thunderstorm Thunderstorm  
Wind Chill: 68°   Ceiling: 8000
Heat Index: 68°   Visibility: 2.5mi
Dew Point: 66°   Wind: 2mph
Humidity: 94%   Direction: NA
Pressure: 29.56"   Gusts: NA
Location:  29.54°S, 52.52°W
Report Text: SBSM 210900Z VRB02KT 4000 TSRA FEW025 FEW030CB BKN080 OVC100 20/19 Q1001
Loading
Personal Weather Stations






























Interactive Weather Map New forecast layout! Learn more

10-Day Weather Forecast

Advertisements
Track Severe Weather on mobile